Time;durP1;ratioP1;P1;durP2;ratioP2;P2;SDS_P1;SDS_P2;PMS_P1;PMS_P2;Temp;Humidity;BMP_temperature;BMP_pressure;BME280_temperature;BME280_humidity;BME280_pressure;Samples;Min_cycle;Max_cycle;Signal;HPM_P1;HPM_P2
2023/03/21 00:04:39;;;;;;;11.02;3.22;;;;;;;9.22;56.22;100112.47;10350333;28;20392;-63
2023/03/21 00:09:53;;;;;;;9.27;3.10;;;;;;;9.20;55.92;100110.91;10344568;28;20081;-62
2023/03/21 00:15:11;;;;;;;7.10;2.75;;;;;;;9.15;56.08;100103.28;10351128;28;20050;-63
2023/03/21 00:20:16;;;;;;;11.73;3.58;;;;;;;9.21;55.93;100102.13;10331336;28;20513;-62
2023/03/21 00:25:17;;;;;;;8.07;3.15;;;;;;;9.26;56.06;100098.34;10355812;28;20592;-62
2023/03/21 00:30:20;;;;;;;8.85;3.05;;;;;;;9.12;55.94;100087.78;10332325;28;20052;-64
2023/03/21 00:35:21;;;;;;;9.70;3.13;;;;;;;9.01;56.14;100092.72;10355349;28;20299;-63
2023/03/21 00:40:43;;;;;;;10.50;3.63;;;;;;;9.08;55.73;100088.88;10352896;28;20064;-62
2023/03/21 00:45:50;;;;;;;9.25;3.10;;;;;;;9.06;55.79;100090.72;10359902;28;20317;-62
2023/03/21 00:50:53;;;;;;;11.05;3.40;;;;;;;9.10;55.68;100083.56;10343594;28;20049;-64
2023/03/21 00:55:55;;;;;;;8.25;2.90;;;;;;;9.21;55.75;100079.50;10346626;28;20510;-64
2023/03/21 01:00:57;;;;;;;9.95;3.30;;;;;;;9.28;55.49;100077.41;10342180;28;20049;-64
2023/03/21 01:06:06;;;;;;;11.45;3.15;;;;;;;9.32;55.32;100071.94;10347484;28;20074;-63
2023/03/21 01:11:11;;;;;;;9.00;3.15;;;;;;;9.35;55.29;100066.56;10345428;28;20049;-64
2023/03/21 01:16:13;;;;;;;8.30;3.08;;;;;;;9.49;55.17;100068.44;10347763;28;20056;-64
2023/03/21 01:21:15;;;;;;;11.10;3.05;;;;;;;9.54;55.36;100054.22;10346093;28;20057;-64
2023/03/21 01:26:16;;;;;;;12.18;3.30;;;;;;;9.54;55.44;100048.97;10346611;28;20437;-63
2023/03/21 01:31:19;;;;;;;8.63;2.80;;;;;;;9.58;55.64;100047.06;10344069;28;20064;-63
2023/03/21 01:36:23;;;;;;;8.00;3.17;;;;;;;9.53;55.43;100039.47;10344228;28;20527;-63
2023/03/21 01:41:35;;;;;;;10.32;3.60;;;;;;;9.39;55.82;100036.78;10360301;28;20077;-64
2023/03/21 01:46:52;;;;;;;11.20;4.25;;;;;;;9.08;57.30;100041.91;10340417;28;20041;-63
2023/03/21 01:52:16;;;;;;;10.63;4.40;;;;;;;8.92;57.61;100035.78;10346110;28;20417;-62
2023/03/21 01:57:47;;;;;;;12.15;4.20;;;;;;;8.85;58.51;100032.66;10347134;28;20049;-64
2023/03/21 02:03:10;;;;;;;13.63;3.97;;;;;;;8.76;58.23;100032.28;10343698;28;20054;-63
2023/03/21 02:08:20;;;;;;;11.48;4.32;;;;;;;8.75;58.28;100022.78;10348227;28;20056;-62
2023/03/21 02:13:35;;;;;;;9.02;3.47;;;;;;;8.79;58.13;100019.09;10348058;28;20150;-62
2023/03/21 02:19:14;;;;;;;11.27;4.10;;;;;;;8.73;58.15;100016.78;10351339;28;20050;-64
2023/03/21 02:24:49;;;;;;;11.13;3.80;;;;;;;8.75;58.15;100014.97;10348052;28;20045;-63
2023/03/21 02:30:24;;;;;;;9.38;3.78;;;;;;;8.98;57.78;100009.38;10337732;28;20053;-62
2023/03/21 02:35:52;;;;;;;11.37;4.10;;;;;;;8.79;58.20;99996.44;10348359;28;20054;-62
2023/03/21 02:41:11;;;;;;;9.52;3.88;;;;;;;8.96;58.42;99987.75;10346862;28;20057;-63
2023/03/21 02:46:34;;;;;;;10.38;3.97;;;;;;;9.11;58.09;99994.78;10354047;28;20041;-63
2023/03/21 02:51:46;;;;;;;13.57;3.88;;;;;;;9.22;57.84;99982.00;10346183;28;20041;-64
2023/03/21 02:56:49;;;;;;;10.05;3.65;;;;;;;9.22;57.61;99989.00;10345910;28;21008;-63
2023/03/21 03:01:54;;;;;;;13.00;3.65;;;;;;;9.18;57.42;99985.69;10349585;28;20076;-63
2023/03/21 03:07:02;;;;;;;10.65;3.83;;;;;;;9.18;57.50;99977.06;10361432;28;20064;-63
2023/03/21 03:12:34;;;;;;;9.88;3.92;;;;;;;9.16;57.70;99977.13;10360468;28;20071;-63
2023/03/21 03:17:41;;;;;;;;;;;;;;;8.68;58.81;99974.47;10378533;28;20261;-63
2023/03/21 03:23:00;;;;;;;14.10;4.45;;;;;;;8.88;57.97;99971.66;10369442;28;19925;-63
2023/03/21 03:28:05;;;;;;;10.25;4.25;;;;;;;8.96;58.53;99971.25;10353918;28;20502;-63
2023/03/21 03:33:09;;;;;;;9.35;3.97;;;;;;;9.10;58.07;99977.44;10361319;28;20258;-62
2023/03/21 03:38:13;;;;;;;9.68;4.30;;;;;;;9.14;57.66;99978.97;10360578;28;20056;-63
2023/03/21 03:43:23;;;;;;;8.40;3.70;;;;;;;9.08;57.80;99971.47;10366898;28;20502;-63
2023/03/21 03:48:34;;;;;;;10.43;4.30;;;;;;;9.07;58.40;99966.34;10362070;28;20060;-63
2023/03/21 03:53:45;;;;;;;;;;;;;;;8.78;59.19;99967.84;10362523;28;20053;-63
2023/03/21 03:58:47;;;;;;;7.97;3.10;;;;;;;8.99;58.73;99964.13;10360393;28;19932;-63
2023/03/21 04:03:49;;;;;;;8.00;3.42;;;;;;;9.02;58.70;99957.91;10355392;28;20052;-63
2023/03/21 04:09:03;;;;;;;13.90;3.88;;;;;;;8.95;58.68;99966.97;10353578;28;20215;-63
2023/03/21 04:14:19;;;;;;;9.90;4.15;;;;;;;8.88;59.15;99963.84;10366845;28;20208;-63
2023/03/21 04:19:21;;;;;;;10.68;3.70;;;;;;;8.83;59.13;99960.66;10352564;28;20062;-63
2023/03/21 04:24:23;;;;;;;10.90;4.07;;;;;;;8.75;59.34;99958.41;10353301;28;20054;-63
2023/03/21 04:29:28;;;;;;;13.93;4.28;;;;;;;8.68;59.24;99961.44;10350557;28;20214;-63
2023/03/21 04:34:30;;;;;;;7.57;3.83;;;;;;;8.45;59.19;99959.13;10353140;28;20075;-62
2023/03/21 04:39:31;;;;;;;12.50;4.20;;;;;;;8.20;59.88;99958.69;10352394;28;20552;-63
2023/03/21 04:44:33;;;;;;;11.88;4.40;;;;;;;8.10;60.10;99960.91;10351228;28;20038;-63
2023/03/21 04:49:35;;;;;;;12.13;4.60;;;;;;;8.02;60.24;99953.44;10348830;28;20467;-62
2023/03/21 04:54:37;;;;;;;9.13;4.43;;;;;;;7.84;60.78;99946.53;10349971;28;20042;-63
2023/03/21 04:59:39;;;;;;;11.68;4.28;;;;;;;7.69;61.14;99947.25;10353020;28;20045;-64
2023/03/21 05:04:41;;;;;;;7.90;4.20;;;;;;;7.63;61.28;99946.72;10353889;28;20045;-62
2023/03/21 05:09:42;;;;;;;10.95;4.30;;;;;;;7.62;61.31;99945.88;10351416;28;20048;-63
2023/03/21 05:14:44;;;;;;;12.38;4.13;;;;;;;7.64;61.36;99949.25;10350085;28;20410;-63
2023/03/21 05:19:46;;;;;;;9.68;3.70;;;;;;;7.71;61.66;99941.97;10351575;28;20500;-63
2023/03/21 05:24:49;;;;;;;10.02;4.03;;;;;;;7.74;61.84;99932.25;10345151;28;20042;-64
2023/03/21 05:29:50;;;;;;;10.07;3.38;;;;;;;7.84;62.00;99930.91;10347465;28;20072;-63
2023/03/21 05:34:52;;;;;;;12.27;3.75;;;;;;;7.93;61.94;99935.66;10348998;28;20494;-63
2023/03/21 05:39:54;;;;;;;12.45;3.97;;;;;;;8.02;61.75;99939.56;10349804;28;20546;-63
2023/03/21 05:44:55;;;;;;;12.68;3.90;;;;;;;8.15;61.64;99940.69;10355946;28;20049;-64
2023/03/21 05:49:57;;;;;;;10.02;3.58;;;;;;;8.26;61.32;99946.19;10347269;28;20049;-64
2023/03/21 05:54:59;;;;;;;12.95;4.22;;;;;;;8.42;61.19;99946.28;10349028;28;20528;-64
2023/03/21 06:00:00;;;;;;;9.73;3.40;;;;;;;8.47;61.01;99949.47;10353707;28;20050;-63
2023/03/21 06:05:02;;;;;;;10.93;3.50;;;;;;;8.50;60.70;99951.94;10347601;28;20283;-64
2023/03/21 06:10:05;;;;;;;14.90;3.90;;;;;;;8.46;60.87;99947.81;10350662;28;20056;-64
2023/03/21 06:15:07;;;;;;;9.93;3.38;;;;;;;8.45;60.95;99952.16;10347722;28;20041;-63
2023/03/21 06:20:10;;;;;;;11.77;3.65;;;;;;;8.70;60.84;99947.41;10345415;28;20058;-63
2023/03/21 06:25:12;;;;;;;15.05;4.32;;;;;;;8.99;60.18;99948.50;10355183;28;20046;-64
2023/03/21 06:30:14;;;;;;;11.52;3.70;;;;;;;9.24;59.71;99953.25;10349750;28;20112;-64
2023/03/21 06:35:16;;;;;;;10.60;4.47;;;;;;;9.31;59.14;99959.78;10355431;28;20409;-64
2023/03/21 06:40:18;;;;;;;16.52;4.40;;;;;;;9.42;58.64;99968.72;10355783;28;20663;-64
2023/03/21 06:45:20;;;;;;;13.48;4.57;;;;;;;9.53;58.48;99961.16;10362406;28;20450;-64
2023/03/21 06:50:22;;;;;;;23.90;11.82;;;;;;;9.68;59.02;99961.28;10359696;28;20061;-64
2023/03/21 06:55:25;;;;;;;21.13;11.07;;;;;;;9.72;59.33;99965.41;10354568;28;20049;-64
2023/03/21 07:00:27;;;;;;;16.17;7.10;;;;;;;9.88;58.80;99958.38;10375990;28;20049;-64
2023/03/21 07:05:30;;;;;;;14.88;5.82;;;;;;;10.16;58.45;99948.03;10354327;28;20355;-64
2023/03/21 07:10:32;;;;;;;10.60;4.20;;;;;;;10.23;58.08;99949.38;10350647;28;20054;-64
2023/03/21 07:15:36;;;;;;;11.90;3.83;;;;;;;10.21;57.91;99951.25;10349338;28;20052;-64
2023/03/21 07:20:39;;;;;;;13.45;4.25;;;;;;;10.31;57.86;99961.09;10365311;28;20061;-64
2023/03/21 07:25:41;;;;;;;15.05;4.18;;;;;;;10.33;57.75;99954.00;10356435;28;20052;-65
2023/03/21 07:30:43;;;;;;;9.02;4.30;;;;;;;10.43;57.78;99955.13;10371684;28;20061;-63
2023/03/21 07:35:45;;;;;;;13.27;4.50;;;;;;;10.68;57.07;99954.53;10379143;28;20421;-64
2023/03/21 07:40:48;;;;;;;14.27;4.70;;;;;;;10.74;56.47;99961.16;10369358;28;20137;-64
2023/03/21 07:45:49;;;;;;;27.35;7.25;;;;;;;10.97;56.42;99948.34;10356710;28;20282;-64
2023/03/21 07:50:51;;;;;;;27.88;7.70;;;;;;;11.08;56.03;99956.44;10349559;28;20150;-63
2023/03/21 07:55:57;;;;;;;13.02;4.65;;;;;;;10.96;56.31;99965.00;10356096;28;20046;-64
2023/03/21 08:00:59;;;;;;;14.77;4.30;;;;;;;11.06;56.50;99963.53;10347011;28;20073;-64
2023/03/21 08:06:01;;;;;;;12.70;3.70;;;;;;;11.08;56.42;99969.53;10367773;28;20041;-64
2023/03/21 08:11:04;;;;;;;10.98;4.05;;;;;;;11.11;56.23;99974.56;10332900;28;20137;-65
2023/03/21 08:16:07;;;;;;;14.50;4.00;;;;;;;11.23;56.01;99973.78;10346176;28;20042;-64
2023/03/21 08:21:17;;;;;;;11.43;4.13;;;;;;;11.37;55.55;99966.88;10342808;28;20543;-65
2023/03/21 08:26:25;;;;;;;10.65;3.97;;;;;;;11.61;55.05;99960.09;10356342;28;20049;-64
2023/03/21 08:31:27;;;;;;;14.70;4.40;;;;;;;11.78;54.51;99954.63;10345823;28;20165;-64
2023/03/21 08:36:30;;;;;;;18.45;4.43;;;;;;;11.84;54.80;99956.84;10378746;28;20434;-64
2023/03/21 08:41:33;;;;;;;10.40;4.40;;;;;;;11.82;55.37;99966.59;10347743;28;20487;-64
2023/03/21 08:46:35;;;;;;;11.38;4.53;;;;;;;11.59;56.19;99968.06;10365810;28;20054;-64
2023/03/21 08:51:37;;;;;;;14.10;4.38;;;;;;;11.57;56.55;99963.84;10359465;28;20049;-69
2023/03/21 08:56:39;;;;;;;11.95;4.43;;;;;;;11.61;57.00;99965.34;10349019;28;20054;-69
2023/03/21 09:01:41;;;;;;;12.30;3.92;;;;;;;11.81;55.74;99965.75;10347923;28;20414;-70
2023/03/21 09:06:44;;;;;;;13.23;4.70;;;;;;;11.82;56.00;99953.50;10330726;28;20623;-69
2023/03/21 09:11:49;;;;;;;14.90;4.72;;;;;;;11.91;56.37;99960.75;10345386;28;20302;-71
2023/03/21 09:16:53;;;;;;;15.52;5.15;;;;;;;11.76;56.78;99964.38;10373950;28;20133;-69
2023/03/21 09:21:54;;;;;;;15.68;5.15;;;;;;;11.62;57.68;99964.41;10361016;28;20083;-71
2023/03/21 09:26:56;;;;;;;17.92;6.20;;;;;;;11.63;58.60;99974.78;10349621;28;20042;-70
2023/03/21 09:31:59;;;;;;;15.13;5.47;;;;;;;11.77;58.36;99976.53;10349374;28;20983;-71
2023/03/21 09:37:01;;;;;;;19.65;6.13;;;;;;;11.81;58.38;99976.22;10347578;28;20406;-70
2023/03/21 09:42:43;;;;;;;14.30;5.20;;;;;;;11.78;58.75;99975.59;10352166;28;20380;-70
2023/03/21 09:47:55;;;;;;;12.60;5.63;;;;;;;11.80;58.64;99977.19;10351852;28;20041;-69
2023/03/21 09:53:04;;;;;;;13.30;6.10;;;;;;;11.86;59.50;99973.31;10341630;28;20302;-70
2023/03/21 09:58:29;;;;;;;17.70;7.00;;;;;;;12.06;59.66;99973.72;10349031;28;20045;-70
2023/03/21 10:03:35;;;;;;;17.73;6.18;;;;;;;12.08;59.05;99969.22;10345596;28;20056;-70
2023/03/21 10:08:44;;;;;;;16.50;6.40;;;;;;;12.13;59.27;99976.75;10348296;28;20784;-70
2023/03/21 10:13:58;;;;;;;12.82;5.68;;;;;;;12.21;59.44;99969.25;10350605;28;20053;-70
2023/03/21 10:19:09;;;;;;;14.93;6.35;;;;;;;12.26;59.23;99972.41;10347045;28;20128;-70
2023/03/21 10:24:21;;;;;;;16.25;6.72;;;;;;;12.03;59.51;99970.44;10347333;28;20072;-70
2023/03/21 10:29:27;;;;;;;14.73;6.40;;;;;;;12.14;59.96;99973.22;10346121;28;20050;-71
2023/03/21 10:34:41;;;;;;;19.45;6.47;;;;;;;11.97;60.33;99968.22;10348410;28;20987;-71
2023/03/21 10:39:46;;;;;;;20.38;6.88;;;;;;;12.01;59.88;99978.41;10346512;28;20046;-71
2023/03/21 10:44:50;;;;;;;12.70;6.43;;;;;;;11.88;60.38;99979.31;10344173;28;20115;-71
2023/03/21 10:49:52;;;;;;;19.35;7.75;;;;;;;11.85;60.57;99971.63;10335177;28;20065;-72
2023/03/21 10:55:24;;;;;;;17.08;6.65;;;;;;;11.92;60.51;99980.78;10339518;28;21666;-71
2023/03/21 11:00:32;;;;;;;15.43;6.72;;;;;;;12.22;59.95;99963.06;10339164;28;20176;-71
2023/03/21 11:05:38;;;;;;;17.15;7.47;;;;;;;12.17;60.29;99961.69;10343687;28;20046;-71
2023/03/21 11:10:57;;;;;;;18.38;6.88;;;;;;;12.05;61.08;99969.41;10344192;28;20417;-71
2023/03/21 11:16:17;;;;;;;20.83;7.97;;;;;;;12.11;61.59;99958.50;10338193;28;20053;-69
2023/03/21 11:21:21;;;;;;;13.48;5.90;;;;;;;12.21;60.74;99950.91;10354422;28;20050;-71
2023/03/21 11:26:31;;;;;;;15.00;5.72;;;;;;;12.16;60.87;99947.72;10367918;28;20053;-71
2023/03/21 11:31:40;;;;;;;15.70;5.93;;;;;;;12.12;61.53;99948.88;10352435;28;20054;-71
2023/03/21 11:36:42;;;;;;;14.95;5.90;;;;;;;12.13;61.25;99945.31;10350855;28;20053;-71
2023/03/21 11:41:50;;;;;;;12.75;5.32;;;;;;;12.11;61.35;99941.94;10355434;28;20283;-71
2023/03/21 11:46:51;;;;;;;16.88;5.32;;;;;;;12.37;60.78;99937.63;10354752;28;20366;-71
2023/03/21 11:51:57;;;;;;;13.35;5.63;;;;;;;12.35;61.32;99924.63;10357480;28;20042;-70
2023/03/21 11:57:10;;;;;;;10.32;4.28;;;;;;;12.37;60.62;99925.38;10352865;28;20133;-70
2023/03/21 12:02:33;;;;;;;12.93;4.13;;;;;;;12.34;60.27;99907.22;10350981;28;20147;-70
2023/03/21 12:08:00;;;;;;;11.85;4.78;;;;;;;12.38;60.63;99895.56;10350233;28;20089;-71
2023/03/21 12:13:17;;;;;;;10.85;4.13;;;;;;;12.50;59.75;99892.09;10336064;28;20482;-71
2023/03/21 12:18:28;;;;;;;12.40;4.20;;;;;;;12.51;60.15;99885.94;10350846;28;20139;-71
2023/03/21 12:23:29;;;;;;;;;;;;;;;11.98;60.09;99880.78;10351917;28;20494;-71
2023/03/21 12:28:37;;;;;;;10.25;4.28;;;;;;;11.84;60.30;99865.16;10351147;28;19925;-71
2023/03/21 12:34:03;;;;;;;13.90;4.90;;;;;;;11.82;61.93;99867.03;10346423;28;20053;-71
2023/03/21 12:39:31;;;;;;;11.02;4.18;;;;;;;11.82;60.79;99861.78;10329431;28;20042;-71
2023/03/21 12:44:40;;;;;;;12.60;4.78;;;;;;;11.77;61.64;99850.75;10351669;28;20165;-71
2023/03/21 12:49:55;;;;;;;13.52;5.20;;;;;;;11.77;62.11;99843.75;10351163;28;20056;-71
2023/03/21 12:55:06;;;;;;;13.85;5.75;;;;;;;11.90;62.65;99842.00;10350552;28;20536;-70
2023/03/21 13:00:17;;;;;;;13.27;5.05;;;;;;;11.96;61.80;99838.97;10346645;28;20432;-71
2023/03/21 13:05:27;;;;;;;14.25;5.65;;;;;;;11.99;62.42;99830.88;10346227;28;20521;-70
2023/03/21 13:10:30;;;;;;;15.05;5.65;;;;;;;12.06;62.54;99824.31;10348859;28;20379;-71
2023/03/21 13:15:47;;;;;;;14.73;5.82;;;;;;;12.03;61.78;99807.91;10348877;28;20100;-70
2023/03/21 13:20:54;;;;;;;21.67;7.32;;;;;;;12.04;63.39;99820.09;10348694;28;20477;-70
2023/03/21 13:25:56;;;;;;;14.65;6.75;;;;;;;12.06;63.41;99807.72;10348202;28;20045;-70
2023/03/21 13:31:24;;;;;;;12.80;5.65;;;;;;;11.98;62.96;99795.16;10344654;28;20064;-71
2023/03/21 13:36:30;;;;;;;9.68;4.38;;;;;;;12.26;62.32;99788.84;10343430;28;20050;-71
2023/03/21 13:41:38;;;;;;;8.65;3.95;;;;;;;12.25;60.86;99779.31;10344725;28;20057;-70
2023/03/21 13:46:52;;;;;;;8.13;3.75;;;;;;;12.26;60.73;99762.63;10346075;28;20736;-71
2023/03/21 13:51:57;;;;;;;12.20;4.95;;;;;;;12.29;61.28;99790.47;10334676;28;20294;-71
2023/03/21 13:57:04;;;;;;;13.75;6.20;;;;;;;11.86;62.77;99795.13;10345633;28;20076;-70
2023/03/21 14:02:29;;;;;;;14.50;6.07;;;;;;;11.76;62.64;99789.69;10350969;28;20075;-71
2023/03/21 14:07:39;;;;;;;18.25;7.05;;;;;;;11.98;63.33;99783.81;10346034;28;20072;-71
2023/03/21 14:12:43;;;;;;;8.57;4.90;;;;;;;11.86;61.92;99774.16;10343912;28;20061;-71
2023/03/21 14:17:55;;;;;;;11.40;5.40;;;;;;;12.17;61.97;99762.44;10343329;28;20050;-71
2023/03/21 14:22:58;;;;;;;12.13;5.07;;;;;;;12.54;61.36;99751.91;10342126;28;20093;-71
2023/03/21 14:28:03;;;;;;;9.05;4.38;;;;;;;12.75;59.92;99754.81;10345281;28;20226;-70
2023/03/21 14:33:39;;;;;;;12.00;5.45;;;;;;;12.68;59.74;99746.53;10345374;28;20052;-71
2023/03/21 14:38:40;;;;;;;13.23;5.68;;;;;;;12.69;60.22;99752.63;10346711;28;20045;-71
2023/03/21 14:43:42;;;;;;;10.52;5.95;;;;;;;12.75;60.56;99745.16;10362307;28;20409;-70
2023/03/21 14:48:44;;;;;;;10.65;5.65;;;;;;;12.57;60.71;99750.88;10346426;28;20045;-71
2023/03/21 14:53:46;;;;;;;12.88;6.15;;;;;;;12.38;61.59;99742.59;10349716;28;20057;-70
2023/03/21 14:58:49;;;;;;;10.45;4.90;;;;;;;12.26;60.56;99743.44;10349712;28;20048;-70
2023/03/21 15:03:51;;;;;;;9.52;5.50;;;;;;;12.45;60.35;99736.00;10356620;28;20042;-70
2023/03/21 15:08:59;;;;;;;10.48;5.10;;;;;;;12.51;59.79;99739.03;10349846;28;20533;-71
2023/03/21 15:14:11;;;;;;;9.40;5.40;;;;;;;12.47;60.38;99728.84;10364274;28;20050;-70
2023/03/21 15:19:16;;;;;;;10.00;4.88;;;;;;;12.53;60.46;99716.16;10333222;28;20786;-69
2023/03/21 15:24:26;;;;;;;9.00;5.75;;;;;;;12.20;61.47;99692.28;10352210;28;20279;-71
2023/03/21 15:29:28;;;;;;;12.18;6.53;;;;;;;12.08;61.80;99696.59;10350591;28;20049;-69
2023/03/21 15:34:30;;;;;;;13.57;6.25;;;;;;;12.14;62.13;99690.94;10351937;28;20070;-70
2023/03/21 15:39:34;;;;;;;11.73;6.53;;;;;;;12.31;61.97;99686.31;10358646;28;20499;-70
2023/03/21 15:44:36;;;;;;;10.20;6.15;;;;;;;12.25;62.02;99682.31;10350955;28;20140;-70
2023/03/21 15:49:40;;;;;;;10.05;6.38;;;;;;;12.27;61.66;99685.66;10349121;28;20048;-69
2023/03/21 15:54:49;;;;;;;10.80;5.57;;;;;;;12.14;60.94;99685.69;10351176;28;20401;-69
2023/03/21 15:59:58;;;;;;;11.07;5.65;;;;;;;12.20;61.56;99678.31;10350283;28;20061;-71
2023/03/21 16:05:18;;;;;;;12.57;8.60;;;;;;;12.21;61.67;99683.47;10351311;28;20050;-71
2023/03/21 16:10:28;;;;;;;10.63;5.38;;;;;;;12.13;60.90;99675.28;10349558;28;20053;-71
2023/03/21 16:15:31;;;;;;;11.98;7.20;;;;;;;12.15;61.52;99670.75;10349865;28;20057;-70
2023/03/21 16:20:36;;;;;;;9.45;6.63;;;;;;;11.89;61.88;99659.50;10351120;28;20061;-71
2023/03/21 16:25:39;;;;;;;10.27;5.82;;;;;;;11.83;61.34;99648.59;10354620;28;20427;-71
2023/03/21 16:30:41;;;;;;;8.38;5.20;;;;;;;11.77;61.09;99644.63;10349051;28;20068;-69
2023/03/21 16:35:42;;;;;;;9.93;6.32;;;;;;;11.57;61.46;99634.69;10348099;28;20045;-69
2023/03/21 16:40:44;;;;;;;9.10;6.43;;;;;;;11.47;62.23;99636.25;10347181;28;20048;-69
2023/03/21 16:45:46;;;;;;;10.38;6.00;;;;;;;11.45;62.47;99635.50;10349659;28;20084;-70
2023/03/21 16:50:47;;;;;;;11.52;5.97;;;;;;;11.45;62.41;99642.53;10345666;28;20053;-69
2023/03/21 16:55:50;;;;;;;9.70;5.50;;;;;;;11.17;62.95;99638.31;10336750;28;20057;-69
2023/03/21 17:00:54;;;;;;;8.43;5.47;;;;;;;11.21;62.74;99637.19;10351125;28;20041;-69
2023/03/21 17:05:56;;;;;;;10.98;7.32;;;;;;;11.07;63.49;99652.97;10345891;28;20045;-69
2023/03/21 17:10:58;;;;;;;15.25;9.40;;;;;;;10.76;64.64;99655.84;10345386;28;20635;-69
2023/03/21 17:16:00;;;;;;;14.48;9.07;;;;;;;10.64;65.33;99659.28;10345335;28;20448;-69
2023/03/21 17:21:07;;;;;;;11.68;8.13;;;;;;;10.34;65.78;99665.50;10344306;28;20136;-68
2023/03/21 17:26:13;;;;;;;15.27;10.57;;;;;;;10.48;66.00;99654.19;10345877;28;20477;-70
2023/03/21 17:31:17;;;;;;;12.95;9.18;;;;;;;10.45;65.61;99654.38;10341144;28;20050;-70
2023/03/21 17:36:34;;;;;;;14.73;9.98;;;;;;;10.24;66.00;99661.78;10344624;28;20041;-71
2023/03/21 17:41:36;;;;;;;15.68;11.05;;;;;;;10.38;66.14;99659.13;10348414;28;20302;-70
2023/03/21 17:46:38;;;;;;;22.40;12.55;;;;;;;10.49;66.08;99666.31;10361112;28;20045;-70
2023/03/21 17:51:40;;;;;;;18.70;11.68;;;;;;;10.51;65.85;99667.06;10346656;28;20056;-69
2023/03/21 17:56:42;;;;;;;15.95;11.50;;;;;;;10.40;65.98;99664.25;10345418;28;20155;-68
2023/03/21 18:01:43;;;;;;;18.13;13.20;;;;;;;10.28;66.22;99675.50;10344607;28;20052;-68
2023/03/21 18:06:45;;;;;;;22.90;16.77;;;;;;;10.13;66.47;99676.47;10342857;28;20280;-69
2023/03/21 18:11:47;;;;;;;22.60;14.05;;;;;;;10.02;66.81;99677.13;10371708;28;20417;-68
2023/03/21 18:16:51;;;;;;;16.67;13.25;;;;;;;10.06;66.75;99685.59;10337519;28;20052;-69
2023/03/21 18:21:53;;;;;;;18.00;12.20;;;;;;;10.12;66.76;99696.53;10357128;28;20170;-69
2023/03/21 18:26:54;;;;;;;25.77;17.75;;;;;;;10.06;66.88;99696.03;10351447;28;20335;-69
2023/03/21 18:31:59;;;;;;;31.77;22.85;;;;;;;9.99;67.01;99697.38;10375639;28;20520;-68
2023/03/21 18:37:08;;;;;;;37.97;26.33;;;;;;;9.71;67.41;99705.19;10371416;28;20061;-68
2023/03/21 18:42:13;;;;;;;23.48;17.38;;;;;;;9.30;67.85;99705.81;10375861;28;20295;-68
2023/03/21 18:47:21;;;;;;;26.83;19.63;;;;;;;9.10;68.61;99705.28;10350312;28;20089;-68
2023/03/21 18:52:24;;;;;;;27.17;19.63;;;;;;;9.03;68.66;99712.63;10353183;28;20254;-68
2023/03/21 18:57:27;;;;;;;17.15;12.52;;;;;;;9.03;68.80;99709.19;10360534;28;20081;-68
2023/03/21 19:02:46;;;;;;;55.55;26.30;;;;;;;9.11;68.65;99709.56;10355729;28;20068;-62
2023/03/21 19:07:51;;;;;;;989.78;46.65;;;;;;;9.04;68.60;99700.41;10360384;28;20046;-63
2023/03/21 19:12:53;;;;;;;280.63;21.73;;;;;;;9.03;68.71;99710.03;10358151;28;20057;-64
2023/03/21 19:17:55;;;;;;;58.80;24.10;;;;;;;9.03;68.45;99712.63;10347479;28;20107;-63
2023/03/21 19:23:19;;;;;;;509.90;32.75;;;;;;;8.79;68.58;99699.19;10349379;28;20064;-63
2023/03/21 19:28:21;;;;;;;232.15;30.17;;;;;;;8.80;68.82;99702.66;10350817;28;20548;-63
2023/03/21 19:33:23;;;;;;;29.92;18.45;;;;;;;8.96;69.00;99710.44;10348736;28;20567;-63
2023/03/21 19:38:26;;;;;;;19.23;14.77;;;;;;;9.21;68.70;99702.91;10346133;28;20049;-63
2023/03/21 19:43:28;;;;;;;25.08;17.77;;;;;;;9.40;68.31;99704.34;10350397;28;20057;-64
2023/03/21 19:48:36;;;;;;;32.70;22.58;;;;;;;9.44;68.14;99711.06;10348559;28;20425;-63
2023/03/21 19:53:39;;;;;;;77.47;33.15;;;;;;;9.29;67.88;99711.97;10349593;28;20079;-63
2023/03/21 19:58:41;;;;;;;47.80;29.27;;;;;;;9.32;67.96;99716.19;10348731;28;20060;-64
2023/03/21 20:03:43;;;;;;;25.95;18.98;;;;;;;9.43;68.06;99696.34;10349084;28;20778;-63
2023/03/21 20:08:45;;;;;;;37.08;23.25;;;;;;;9.55;67.59;99694.78;10349780;28;20056;-64
2023/03/21 20:14:06;;;;;;;36.38;21.80;;;;;;;9.51;67.75;99696.72;10348409;28;20077;-64
2023/03/21 20:19:11;;;;;;;15.02;12.43;;;;;;;9.54;67.68;99691.31;10349606;28;20057;-64
2023/03/21 20:24:15;;;;;;;24.25;18.60;;;;;;;9.61;67.54;99682.19;10345522;28;20440;-64
2023/03/21 20:29:16;;;;;;;34.63;23.88;;;;;;;9.61;67.38;99666.53;10351935;28;20226;-64
2023/03/21 20:34:39;;;;;;;34.58;21.98;;;;;;;9.54;67.55;99673.03;10356732;28;20057;-64
2023/03/21 20:39:41;;;;;;;41.17;27.60;;;;;;;9.50;67.50;99675.94;10359261;28;20159;-64
2023/03/21 20:44:42;;;;;;;55.17;32.65;;;;;;;9.36;67.50;99684.56;10358638;28;20051;-64
2023/03/21 20:50:01;;;;;;;27.23;17.85;;;;;;;9.30;67.76;99677.09;10335075;28;20054;-63
2023/03/21 20:55:07;;;;;;;36.95;22.92;;;;;;;9.16;67.88;99684.91;10345945;28;20049;-64
2023/03/21 21:00:15;;;;;;;36.58;24.35;;;;;;;9.12;68.18;99688.59;10344337;28;20053;-63
2023/03/21 21:05:18;;;;;;;33.40;21.60;;;;;;;9.20;68.04;99682.97;10349616;28;20556;-63
2023/03/21 21:10:32;;;;;;;52.22;28.25;;;;;;;9.17;67.75;99676.16;10353537;28;20046;-64
2023/03/21 21:15:38;;;;;;;37.22;22.95;;;;;;;9.07;67.56;99677.63;10333777;28;20046;-64
2023/03/21 21:20:40;;;;;;;35.80;22.05;;;;;;;8.93;67.64;99676.72;10351111;28;20046;-63
2023/03/21 21:25:42;;;;;;;32.10;18.63;;;;;;;8.80;67.70;99672.19;10347446;28;20125;-63
2023/03/21 21:30:44;;;;;;;35.88;22.27;;;;;;;8.68;67.88;99670.28;10342493;28;20057;-63
2023/03/21 21:35:47;;;;;;;61.53;28.50;;;;;;;8.55;67.93;99661.47;10343380;28;20050;-63
2023/03/21 21:40:50;;;;;;;39.47;20.98;;;;;;;8.44;68.04;99647.34;10334705;28;20056;-63
2023/03/21 21:45:53;;;;;;;27.38;19.50;;;;;;;8.33;68.06;99660.13;10344051;28;20530;-63
2023/03/21 21:50:55;;;;;;;310.10;41.00;;;;;;;8.23;67.96;99659.78;10340943;28;20082;-63
2023/03/21 21:55:56;;;;;;;422.92;30.92;;;;;;;7.97;68.36;99652.50;10344992;28;20141;-63
2023/03/21 22:01:00;;;;;;;375.25;16.05;;;;;;;7.86;68.70;99650.47;10345144;28;20042;-62
2023/03/21 22:06:03;;;;;;;833.53;37.03;;;;;;;7.78;69.07;99644.84;10348371;28;20053;-62
2023/03/21 22:11:05;;;;;;;777.75;40.67;;;;;;;7.75;69.10;99642.38;10346453;28;20050;-62
2023/03/21 22:16:07;;;;;;;667.90;31.25;;;;;;;7.73;69.24;99644.22;10348945;28;20440;-62
2023/03/21 22:21:09;;;;;;;673.85;35.95;;;;;;;7.72;68.89;99644.31;10348370;28;20061;-62
2023/03/21 22:26:10;;;;;;;575.90;35.90;;;;;;;7.63;69.22;99658.63;10346301;28;20054;-63
2023/03/21 22:31:14;;;;;;;575.67;34.03;;;;;;;7.56;69.57;99653.84;10346397;28;20439;-62
2023/03/21 22:36:16;;;;;;;487.30;31.15;;;;;;;7.65;68.90;99645.56;10345792;28;20476;-62
2023/03/21 22:41:18;;;;;;;331.20;20.02;;;;;;;7.65;69.00;99656.78;10346002;28;20045;-62
2023/03/21 22:46:19;;;;;;;545.30;32.63;;;;;;;7.60;68.60;99660.56;10343968;28;20432;-63
2023/03/21 22:51:21;;;;;;;575.95;32.97;;;;;;;7.51;68.60;99664.47;10348240;28;20052;-63
2023/03/21 22:56:23;;;;;;;477.17;29.17;;;;;;;7.36;68.13;99660.06;10348499;28;20411;-62
2023/03/21 23:01:25;;;;;;;483.52;32.53;;;;;;;7.30;68.45;99663.00;10360264;28;20214;-62
2023/03/21 23:06:26;;;;;;;214.00;23.67;;;;;;;7.27;68.50;99659.69;10345823;28;20049;-63
2023/03/21 23:11:28;;;;;;;246.57;19.73;;;;;;;7.22;68.38;99651.28;10344263;28;20046;-63
2023/03/21 23:16:30;;;;;;;291.08;23.13;;;;;;;7.17;68.49;99654.09;10345683;28;20049;-63
2023/03/21 23:21:33;;;;;;;171.90;18.25;;;;;;;7.12;68.70;99648.31;10353235;28;20056;-63
2023/03/21 23:26:35;;;;;;;649.17;37.08;;;;;;;7.11;68.40;99649.22;10350998;28;20410;-63
2023/03/21 23:31:37;;;;;;;534.03;31.00;;;;;;;6.71;68.30;99641.72;10354123;28;20046;-63
2023/03/21 23:36:39;;;;;;;63.17;13.63;;;;;;;6.54;68.99;99642.50;10353012;28;20403;-62